Time;durP1;ratioP1;P1;durP2;ratioP2;P2;SDS_P1;SDS_P2;PMS_P1;PMS_P2;Temp;Humidity;BMP_temperature;BMP_pressure;BME280_temperature;BME280_humidity;BME280_pressure;Samples;Min_cycle;Max_cycle;Signal;HPM_P1;HPM_P2
2022/01/25 00:08:41;;;;;;;9.95;5.05;;;;;;;4.36;83.44;102151.97;5014309;28;20133;-53
2022/01/25 00:25:18;;;;;;;8.95;4.78;;;;;;;4.38;83.08;102133.25;4992217;28;20057;-51
2022/01/25 00:27:51;;;;;;;8.73;3.78;;;;;;;4.39;83.52;102132.44;5016453;28;20064;-52
2022/01/25 00:30:29;;;;;;;6.57;3.95;;;;;;;4.37;82.84;102123.81;5014328;28;20064;-49
2022/01/25 00:32:56;;;;;;;6.18;3.63;;;;;;;4.34;83.29;102108.28;5013572;28;20066;-51
2022/01/25 00:35:22;;;;;;;7.72;3.75;;;;;;;4.33;83.31;102106.53;5015017;28;20057;-53
2022/01/25 00:37:49;;;;;;;5.07;2.92;;;;;;;4.33;83.02;102109.09;5016355;28;20054;-53
2022/01/25 00:40:17;;;;;;;7.05;3.72;;;;;;;4.31;83.19;102097.91;5014831;28;20068;-51
2022/01/25 00:42:43;;;;;;;6.43;3.53;;;;;;;4.28;82.99;102100.34;5013635;28;20798;-52
2022/01/25 00:45:11;;;;;;;6.20;3.42;;;;;;;4.28;83.75;102092.63;5013645;28;20049;-50
2022/01/25 00:47:41;;;;;;;7.13;3.47;;;;;;;4.28;83.59;102097.78;5014147;28;20437;-52
2022/01/25 00:50:14;;;;;;;6.13;3.45;;;;;;;4.29;83.56;102091.81;5015876;28;20064;-52
2022/01/25 00:55:26;;;;;;;6.53;3.20;;;;;;;4.28;83.43;102084.94;5014944;28;20057;-52
2022/01/25 00:57:53;;;;;;;11.85;4.20;;;;;;;4.30;83.93;102079.88;5018740;28;20053;-50
2022/01/25 01:00:20;;;;;;;11.05;4.22;;;;;;;4.28;83.27;102084.94;5017372;28;20094;-49
2022/01/25 01:02:46;;;;;;;9.00;4.63;;;;;;;4.28;83.40;102092.63;5019473;28;20050;-49
2022/01/25 01:05:12;;;;;;;9.10;3.42;;;;;;;4.28;83.36;102092.63;5020035;28;20050;-52
2022/01/25 01:07:40;;;;;;;8.43;4.22;;;;;;;4.28;83.62;102090.06;5021442;28;20056;-52
2022/01/25 01:10:08;;;;;;;6.65;3.72;;;;;;;4.28;83.81;102082.38;5018720;28;20565;-52
2022/01/25 01:13:06;;;;;;;8.95;4.00;;;;;;;4.28;84.00;102079.81;5020598;28;20060;-52
2022/01/25 01:15:35;;;;;;;10.07;4.13;;;;;;;4.25;84.05;102079.69;5019110;28;20520;-49
2022/01/25 01:32:03;;;;;;;7.55;4.65;;;;;;;4.17;84.76;102078.53;5019476;28;20176;-50
2022/01/25 01:37:50;;;;;;;12.40;4.75;;;;;;;4.16;84.93;102066.47;5017801;28;20575;-51
2022/01/25 01:43:16;;;;;;;7.47;3.67;;;;;;;4.19;84.56;102076.88;5017322;28;20108;-51
2022/01/25 01:45:54;;;;;;;10.60;4.40;;;;;;;4.24;85.30;102074.50;5020317;28;20060;-48
2022/01/25 01:48:29;;;;;;;9.70;4.93;;;;;;;4.27;85.23;102069.47;5012796;28;20054;-51
2022/01/25 01:50:59;;;;;;;9.60;4.43;;;;;;;4.28;85.18;102087.50;5018898;28;20829;-50
2022/01/25 01:53:26;;;;;;;10.55;4.68;;;;;;;4.29;84.96;102079.00;5018016;28;20053;-50
2022/01/25 01:55:53;;;;;;;8.52;4.20;;;;;;;4.28;84.94;102086.63;5019296;28;20057;-50
2022/01/25 01:58:19;;;;;;;9.52;4.32;;;;;;;4.30;85.04;102073.03;5020477;28;20065;-51
2022/01/25 02:00:49;;;;;;;9.13;4.30;;;;;;;4.32;85.35;102071.41;5018966;28;20057;-52
2022/01/25 02:03:15;;;;;;;11.68;5.10;;;;;;;4.32;85.15;102063.69;5016228;28;20050;-51
2022/01/25 02:05:42;;;;;;;8.30;4.60;;;;;;;4.29;85.51;102042.19;5017954;28;20493;-51
2022/01/25 02:08:09;;;;;;;9.65;5.22;;;;;;;4.26;85.86;102048.06;5020838;28;20457;-52
2022/01/25 02:10:35;;;;;;;10.93;5.40;;;;;;;4.26;86.08;102052.31;5017464;28;20045;-54
2022/01/25 02:13:05;;;;;;;10.35;5.35;;;;;;;4.26;85.97;102053.19;5019690;28;20065;-51
2022/01/25 02:15:31;;;;;;;11.55;5.35;;;;;;;4.27;85.81;102051.50;5019096;28;20481;-51
2022/01/25 02:23:29;;;;;;;12.13;6.03;;;;;;;4.28;86.58;102043.00;5020081;28;20318;-52
2022/01/25 02:25:58;;;;;;;8.68;4.80;;;;;;;4.30;86.66;102041.34;5018087;28;20053;-52
2022/01/25 02:28:27;;;;;;;12.45;5.70;;;;;;;4.32;86.46;102038.03;5016647;28;20060;-50
2022/01/25 02:30:53;;;;;;;11.80;6.00;;;;;;;4.30;86.44;102044.81;5017996;28;20527;-50
2022/01/25 02:33:21;;;;;;;11.27;5.95;;;;;;;4.31;86.96;102031.16;5017861;28;20049;-53
2022/01/25 02:35:49;;;;;;;12.70;6.00;;;;;;;4.26;86.74;102022.41;5015900;28;20061;-49
2022/01/25 02:38:21;;;;;;;13.13;6.00;;;;;;;4.23;86.80;102023.97;5019928;28;20056;-50
2022/01/25 02:40:47;;;;;;;13.18;6.03;;;;;;;4.19;87.46;102015.28;5017969;28;20138;-50
2022/01/25 02:43:17;;;;;;;11.45;5.88;;;;;;;4.17;87.55;102014.34;5017531;28;20052;-51
2022/01/25 02:45:46;;;;;;;11.90;6.07;;;;;;;4.17;87.57;102013.47;5017995;28;21675;-54
2022/01/25 02:48:30;;;;;;;11.35;5.85;;;;;;;4.18;87.87;102013.53;5015845;28;20501;-51
2022/01/25 02:51:00;;;;;;;10.98;5.75;;;;;;;4.20;87.61;102009.34;5017472;28;20049;-51
2022/01/25 02:53:28;;;;;;;12.93;6.38;;;;;;;4.21;87.68;101995.69;5016015;28;20381;-50
2022/01/25 02:55:55;;;;;;;12.30;5.80;;;;;;;4.22;87.82;101994.88;5016358;28;20049;-52
2022/01/25 02:58:22;;;;;;;11.45;5.95;;;;;;;4.22;87.92;101994.88;5018291;28;20494;-52
2022/01/25 03:00:48;;;;;;;10.73;5.20;;;;;;;4.19;88.60;101992.19;5017368;28;20537;-52
2022/01/25 03:03:15;;;;;;;12.95;6.00;;;;;;;4.18;87.97;101987.88;5015988;28;20045;-49
2022/01/25 03:05:42;;;;;;;14.05;6.22;;;;;;;4.19;87.95;101997.31;5016488;28;20056;-52
2022/01/25 03:08:12;;;;;;;11.82;5.60;;;;;;;4.16;88.26;101999.75;5015477;28;20084;-51
2022/01/25 03:10:42;;;;;;;12.38;5.68;;;;;;;4.15;88.62;102002.25;5018456;28;20060;-53
2022/01/25 03:13:15;;;;;;;11.75;5.65;;;;;;;4.15;88.88;101997.13;5015894;28;20045;-50
2022/01/25 03:16:04;;;;;;;12.02;5.32;;;;;;;4.12;89.02;101992.75;5017488;28;20049;-54
2022/01/25 03:18:43;;;;;;;10.48;5.47;;;;;;;4.12;89.05;101987.63;5011236;28;20168;-49
2022/01/25 03:23:59;;;;;;;10.95;4.75;;;;;;;4.05;89.77;101973.69;5011179;28;20064;-50
2022/01/25 03:26:26;;;;;;;10.10;4.70;;;;;;;4.06;89.87;101978.00;5018494;28;20603;-48
2022/01/25 03:28:55;;;;;;;8.10;4.43;;;;;;;4.08;89.48;101957.53;5017805;28;20049;-51
2022/01/25 03:31:23;;;;;;;8.80;4.32;;;;;;;4.08;89.36;101960.97;5017491;28;20049;-52
2022/01/25 03:33:49;;;;;;;12.35;5.00;;;;;;;4.08;89.43;101965.22;5014065;28;20049;-52
2022/01/25 03:36:16;;;;;;;11.13;4.80;;;;;;;4.10;89.46;101963.59;5012485;28;20447;-54
2022/01/25 03:38:43;;;;;;;11.73;5.10;;;;;;;4.09;89.87;101966.97;5018889;28;20459;-50
2022/01/25 03:41:13;;;;;;;9.82;4.57;;;;;;;4.11;90.11;101965.34;5017637;28;20049;-53
2022/01/25 03:43:40;;;;;;;9.07;4.50;;;;;;;4.11;90.11;101965.34;5017890;28;21266;-53
2022/01/25 03:46:13;;;;;;;8.65;4.22;;;;;;;4.11;90.12;101968.78;5017839;28;20045;-51
2022/01/25 03:51:24;;;;;;;8.43;4.32;;;;;;;4.15;89.50;101967.19;5019437;28;20068;-49
2022/01/25 03:53:51;;;;;;;8.48;4.57;;;;;;;4.17;89.67;101969.84;5014328;28;20046;-53
2022/01/25 03:56:19;;;;;;;8.63;4.25;;;;;;;4.14;89.82;101980.84;5017707;28;20747;-52
2022/01/25 03:58:45;;;;;;;7.65;4.40;;;;;;;4.15;89.66;101974.91;5018100;28;20053;-51
2022/01/25 04:01:12;;;;;;;7.47;3.85;;;;;;;4.16;90.17;101979.22;5015947;28;20084;-50
2022/01/25 04:03:44;;;;;;;6.85;3.25;;;;;;;4.17;89.49;101970.72;5015561;28;20068;-50
2022/01/25 04:06:17;;;;;;;7.28;3.72;;;;;;;4.21;89.59;101962.31;5017756;28;20199;-51
2022/01/25 04:08:43;;;;;;;6.47;3.63;;;;;;;4.20;89.49;101960.56;5015791;28;20053;-49
2022/01/25 04:11:10;;;;;;;7.88;3.95;;;;;;;4.22;89.38;101958.06;5017013;28;20797;-51
2022/01/25 04:13:38;;;;;;;5.93;3.00;;;;;;;4.23;90.02;101952.97;5016186;28;20880;-54
2022/01/25 04:16:11;;;;;;;6.70;3.50;;;;;;;4.22;89.69;101946.09;5016433;28;20739;-53
2022/01/25 04:18:50;;;;;;;5.43;3.28;;;;;;;4.23;89.82;101945.28;5014603;28;20056;-53
2022/01/25 04:21:30;;;;;;;5.43;2.42;;;;;;;4.25;90.04;101938.50;5015770;28;20049;-52
2022/01/25 04:26:40;;;;;;;7.20;3.13;;;;;;;4.28;89.63;101940.31;5015284;28;20083;-52
2022/01/25 04:29:08;;;;;;;4.03;2.38;;;;;;;4.27;89.88;101936.88;5015251;28;20050;-51
2022/01/25 04:31:35;;;;;;;7.07;3.40;;;;;;;4.27;89.44;101929.19;5016780;28;20053;-53
2022/01/25 04:34:11;;;;;;;6.90;3.40;;;;;;;4.30;89.40;101926.72;5017001;28;20520;-53
2022/01/25 04:36:57;;;;;;;6.65;2.95;;;;;;;4.30;89.81;101926.72;5016310;28;20391;-52
2022/01/25 04:50:40;;;;;;;5.85;2.90;;;;;;;4.35;88.67;101938.03;5017102;28;20108;-51
2022/01/25 04:53:13;;;;;;;6.22;2.50;;;;;;;4.35;88.86;101945.72;5018515;28;20069;-54
2022/01/25 04:55:46;;;;;;;6.57;3.47;;;;;;;4.37;89.46;101936.38;5015555;28;20771;-50
2022/01/25 04:58:19;;;;;;;6.63;3.08;;;;;;;4.37;88.89;101938.94;5016070;28;20160;-52
2022/01/25 05:00:48;;;;;;;5.63;2.60;;;;;;;4.37;89.05;101928.69;5015478;28;20069;-50
2022/01/25 05:03:21;;;;;;;5.97;2.97;;;;;;;4.37;88.88;101922.69;5017089;28;20694;-52
2022/01/25 05:05:56;;;;;;;5.57;2.20;;;;;;;4.37;89.01;101928.69;5014539;28;20045;-53
2022/01/25 05:08:32;;;;;;;4.55;2.60;;;;;;;4.38;88.89;101925.28;5017112;28;20053;-53
2022/01/25 05:11:05;;;;;;;4.63;2.53;;;;;;;4.38;88.75;101927.88;5018719;28;20057;-52
2022/01/25 05:13:41;;;;;;;4.85;2.20;;;;;;;4.38;88.75;101917.59;5014776;28;20107;-52
2022/01/25 05:16:16;;;;;;;7.07;3.40;;;;;;;4.41;88.71;101914.25;5016064;28;20049;-51
2022/01/25 05:18:45;;;;;;;7.75;2.88;;;;;;;4.40;88.90;101927.91;5015402;28;20045;-53
2022/01/25 05:23:57;;;;;;;18.35;4.88;;;;;;;4.38;89.15;101930.44;5015477;28;20060;-50
2022/01/25 05:26:25;;;;;;;15.18;4.43;;;;;;;4.38;88.70;101930.44;5015382;28;20068;-49
2022/01/25 05:28:51;;;;;;;7.15;3.30;;;;;;;4.40;89.09;101931.34;5015570;28;20145;-51
2022/01/25 05:31:19;;;;;;;10.38;3.10;;;;;;;4.41;88.91;101935.69;5016880;28;20505;-48
2022/01/25 05:33:46;;;;;;;23.42;4.13;;;;;;;4.42;89.17;101937.44;5015641;28;20053;-52
2022/01/25 05:36:13;;;;;;;18.40;4.47;;;;;;;4.43;89.34;101931.47;5015463;28;20064;-51
2022/01/25 05:38:40;;;;;;;22.83;3.78;;;;;;;4.44;89.32;101915.25;5013667;28;20049;-54
2022/01/25 05:41:06;;;;;;;14.30;4.20;;;;;;;4.47;89.42;101909.34;5017197;28;20049;-53
2022/01/25 05:44:14;;;;;;;6.95;3.40;;;;;;;4.48;89.02;101905.06;5019384;28;20697;-50
2022/01/25 05:46:47;;;;;;;10.63;3.30;;;;;;;4.49;89.47;101892.28;5016688;28;20168;-54
2022/01/25 05:49:13;;;;;;;5.47;2.97;;;;;;;4.52;89.31;101899.22;5019773;28;20896;-53
2022/01/25 05:51:40;;;;;;;5.30;2.45;;;;;;;4.53;89.17;101898.41;5019587;28;20061;-52
2022/01/25 05:54:06;;;;;;;5.28;2.50;;;;;;;4.55;89.21;101901.91;5019605;28;20060;-52
2022/01/25 05:56:33;;;;;;;5.72;2.72;;;;;;;4.55;88.77;101901.91;5019088;28;20049;-50
2022/01/25 05:58:59;;;;;;;5.75;3.10;;;;;;;4.56;89.29;101894.25;5016308;28;20501;-51
2022/01/25 06:01:25;;;;;;;5.68;2.60;;;;;;;4.55;88.59;101900.22;5016626;28;20954;-53
2022/01/25 06:03:54;;;;;;;10.55;3.53;;;;;;;4.57;89.10;101900.25;5018660;28;20092;-51
2022/01/25 06:06:20;;;;;;;24.98;4.85;;;;;;;4.58;88.77;101897.75;5020405;28;20049;-53
2022/01/25 06:08:47;;;;;;;15.18;4.63;;;;;;;4.59;88.96;101903.75;5017338;28;20053;-50
2022/01/25 06:11:13;;;;;;;6.88;3.60;;;;;;;4.59;88.56;101903.75;5019091;28;20437;-54
2022/01/25 06:13:40;;;;;;;7.15;3.08;;;;;;;4.63;88.41;101897.91;5017452;28;20050;-51
2022/01/25 06:16:06;;;;;;;6.35;2.65;;;;;;;4.62;88.42;101909.00;5019184;28;20057;-52
2022/01/25 06:18:33;;;;;;;5.55;2.50;;;;;;;4.64;88.68;101912.47;5016381;28;20053;-50
2022/01/25 06:21:01;;;;;;;7.53;2.55;;;;;;;4.67;88.70;101910.03;5018173;28;20053;-52
2022/01/25 06:23:27;;;;;;;12.55;3.92;;;;;;;4.67;88.74;101907.44;5016620;28;20053;-52
2022/01/25 06:25:54;;;;;;;10.13;3.13;;;;;;;4.69;88.31;101916.13;5019350;28;20145;-51
2022/01/25 06:28:20;;;;;;;11.90;3.20;;;;;;;4.70;88.67;101913.59;5015056;28;20058;-51
2022/01/25 06:30:47;;;;;;;17.17;4.20;;;;;;;4.71;88.61;101914.47;5017418;28;20482;-53
2022/01/25 06:33:14;;;;;;;9.52;3.05;;;;;;;4.70;88.49;101907.59;5017614;28;20125;-52
2022/01/25 06:35:40;;;;;;;12.00;3.35;;;;;;;4.73;88.55;101907.69;5016469;28;20053;-49
2022/01/25 06:38:08;;;;;;;28.48;5.53;;;;;;;4.72;88.24;101901.69;5016940;28;20053;-53
2022/01/25 06:40:35;;;;;;;20.67;4.70;;;;;;;4.74;88.56;101904.31;5017500;28;20053;-49
2022/01/25 06:43:01;;;;;;;16.05;3.67;;;;;;;4.72;88.83;101896.53;5018766;28;20751;-49
2022/01/25 06:45:28;;;;;;;15.43;2.95;;;;;;;4.70;88.67;101905.03;5017902;28;20065;-54
2022/01/25 06:47:54;;;;;;;8.15;3.28;;;;;;;4.71;88.40;101896.50;5016978;28;20081;-54
2022/01/25 06:50:23;;;;;;;5.53;2.85;;;;;;;4.71;88.95;101893.94;5019112;28;20057;-53
2022/01/25 06:52:50;;;;;;;5.90;2.70;;;;;;;4.72;88.97;101895.66;5017541;28;20057;-55
2022/01/25 06:55:19;;;;;;;6.35;2.60;;;;;;;4.72;88.77;101891.41;5016238;28;20053;-54
2022/01/25 06:57:47;;;;;;;6.13;3.20;;;;;;;4.71;89.05;101884.53;5019236;28;20473;-53
2022/01/25 07:00:17;;;;;;;8.73;3.67;;;;;;;4.71;88.82;101879.38;5015836;28;20064;-53
2022/01/25 07:02:43;;;;;;;12.55;3.28;;;;;;;4.72;88.65;101877.69;5018502;28;20060;-54
2022/01/25 07:05:10;;;;;;;11.27;3.85;;;;;;;4.73;89.05;101871.72;5017719;28;20045;-52
2022/01/25 07:07:38;;;;;;;12.80;3.42;;;;;;;4.72;89.01;101880.25;5015570;28;20088;-54
2022/01/25 07:10:06;;;;;;;9.35;2.92;;;;;;;4.72;89.31;101876.00;5019196;28;20172;-53
2022/01/25 07:12:34;;;;;;;5.25;2.58;;;;;;;4.74;88.94;101881.19;5017068;28;20474;-51
2022/01/25 07:15:01;;;;;;;7.15;3.25;;;;;;;4.76;89.27;101876.97;5017648;28;20053;-53
2022/01/25 07:17:27;;;;;;;7.00;3.40;;;;;;;4.75;89.34;101875.22;5018897;28;20061;-52
2022/01/25 07:19:53;;;;;;;5.45;3.03;;;;;;;4.77;89.38;101882.97;5019123;28;20411;-54
2022/01/25 07:22:20;;;;;;;10.35;3.78;;;;;;;4.76;89.57;101884.69;5017295;28;20057;-50
2022/01/25 07:24:46;;;;;;;13.57;4.50;;;;;;;4.76;89.63;101882.09;5017722;28;20049;-55
2022/01/25 07:27:13;;;;;;;10.32;4.22;;;;;;;4.80;89.28;101883.94;5017109;28;21112;-54
2022/01/25 07:29:40;;;;;;;13.30;4.82;;;;;;;4.81;89.56;101880.56;5016493;28;20710;-53
2022/01/25 07:32:08;;;;;;;12.68;3.88;;;;;;;4.82;89.14;101871.16;5015501;28;20391;-50
2022/01/25 07:34:34;;;;;;;17.15;4.40;;;;;;;4.83;89.49;101870.34;5011597;28;20049;-58
2022/01/25 07:37:00;;;;;;;10.35;3.97;;;;;;;4.85;89.36;101872.13;5013278;28;20057;-52
2022/01/25 07:39:28;;;;;;;14.40;3.95;;;;;;;4.85;89.36;101867.00;5018422;28;20050;-52
2022/01/25 07:41:57;;;;;;;5.78;3.35;;;;;;;4.87;89.24;101869.63;5017747;28;20058;-54
2022/01/25 07:44:27;;;;;;;6.97;3.60;;;;;;;4.89;89.20;101868.84;5015216;28;20046;-56
2022/01/25 07:46:57;;;;;;;10.48;3.28;;;;;;;4.91;88.78;101874.91;5016054;28;20068;-49
2022/01/25 07:49:24;;;;;;;15.23;4.95;;;;;;;4.94;88.96;101876.69;5017104;28;21530;-52
2022/01/25 07:51:50;;;;;;;19.40;3.92;;;;;;;4.97;88.79;101879.38;5014409;28;20049;-52
2022/01/25 07:54:17;;;;;;;10.32;3.67;;;;;;;4.98;88.78;101878.53;5014695;28;20045;-51
2022/01/25 07:56:43;;;;;;;12.32;4.03;;;;;;;4.99;88.44;101881.16;5016011;28;20057;-56
2022/01/25 07:59:10;;;;;;;9.52;3.22;;;;;;;5.00;88.24;101890.63;5016188;28;20057;-49
2022/01/25 08:01:37;;;;;;;11.10;3.45;;;;;;;5.03;88.28;101880.44;5014569;28;20056;-50
2022/01/25 08:04:05;;;;;;;5.60;2.92;;;;;;;5.05;88.87;101890.75;5015291;28;20150;-50
2022/01/25 08:06:32;;;;;;;5.68;2.90;;;;;;;5.06;88.58;101888.25;5011308;28;20581;-48
2022/01/25 08:09:00;;;;;;;6.47;3.15;;;;;;;5.08;88.51;101894.31;5012955;28;20485;-53
2022/01/25 08:11:26;;;;;;;5.68;2.80;;;;;;;5.10;88.47;101894.34;5009868;28;20140;-52
2022/01/25 08:14:00;;;;;;;5.50;2.72;;;;;;;5.14;88.28;101895.31;5011386;28;20049;-50
2022/01/25 08:16:26;;;;;;;16.33;3.88;;;;;;;5.17;88.13;101892.84;5010937;28;20056;-49
2022/01/25 08:18:53;;;;;;;15.00;4.28;;;;;;;5.18;88.22;101892.03;5011955;28;20056;-51
2022/01/25 08:21:20;;;;;;;18.23;4.57;;;;;;;5.21;88.26;101887.00;5011470;28;20486;-48
2022/01/25 08:23:47;;;;;;;9.85;3.70;;;;;;;5.23;88.28;101883.66;5015447;28;20437;-47
2022/01/25 08:26:13;;;;;;;7.80;3.10;;;;;;;5.27;88.17;101882.06;5013204;28;20429;-47
2022/01/25 08:28:40;;;;;;;9.77;3.95;;;;;;;5.28;87.97;101878.66;5012049;28;20486;-47
2022/01/25 08:31:06;;;;;;;10.07;3.63;;;;;;;5.30;88.17;101880.47;5010646;28;20058;-53
2022/01/25 08:33:33;;;;;;;12.95;3.80;;;;;;;5.33;88.30;101882.25;5014552;28;20056;-50
2022/01/25 08:35:59;;;;;;;10.05;3.30;;;;;;;5.34;87.59;101878.84;5013424;28;20478;-50
2022/01/25 08:38:27;;;;;;;10.88;3.30;;;;;;;5.36;87.96;101877.19;5017252;28;20046;-52
2022/01/25 08:40:54;;;;;;;7.05;3.13;;;;;;;5.38;87.60;101878.13;5013297;28;20494;-54
2022/01/25 08:43:25;;;;;;;14.48;4.25;;;;;;;5.40;87.82;101873.91;5018757;28;20049;-54
2022/01/25 08:45:51;;;;;;;8.95;3.40;;;;;;;5.41;87.49;101878.22;5012022;28;20081;-54
2022/01/25 08:48:18;;;;;;;13.00;4.05;;;;;;;5.43;87.59;101879.13;5015424;28;20057;-53
2022/01/25 08:50:44;;;;;;;6.68;3.20;;;;;;;5.46;87.58;101880.94;5011955;28;20053;-50
2022/01/25 08:53:11;;;;;;;6.55;3.08;;;;;;;5.47;87.72;101880.97;5013116;28;20137;-50
2022/01/25 08:55:39;;;;;;;6.38;3.35;;;;;;;5.51;87.76;101881.94;5010262;28;20284;-56
2022/01/25 08:58:06;;;;;;;7.20;3.17;;;;;;;5.53;87.84;101886.31;5010179;28;20719;-54
2022/01/25 09:00:33;;;;;;;8.57;3.08;;;;;;;5.56;87.97;101894.09;5012766;28;20789;-56
2022/01/25 09:02:59;;;;;;;6.28;2.75;;;;;;;5.59;88.37;101883.91;5009490;28;20081;-55
2022/01/25 09:05:26;;;;;;;7.18;2.80;;;;;;;5.66;88.18;101880.69;5012737;28;20245;-55
2022/01/25 09:07:53;;;;;;;6.20;2.83;;;;;;;5.75;87.87;101881.81;5007826;28;21988;-52
2022/01/25 09:10:19;;;;;;;5.07;2.38;;;;;;;5.84;87.56;101882.09;5010095;28;20293;-52
2022/01/25 09:12:47;;;;;;;6.28;2.40;;;;;;;5.89;87.16;101883.09;5011140;28;20752;-48
2022/01/25 09:15:13;;;;;;;4.47;2.53;;;;;;;5.93;87.08;101888.41;5011656;28;20053;-51
2022/01/25 09:17:40;;;;;;;10.32;2.67;;;;;;;5.96;86.83;101888.50;5014881;28;20057;-47
2022/01/25 09:20:07;;;;;;;9.27;2.60;;;;;;;5.97;86.60;101884.22;5018712;28;20045;-50
2022/01/25 09:22:33;;;;;;;5.32;2.33;;;;;;;5.99;86.45;101887.69;5012983;28;20049;-56
2022/01/25 09:25:00;;;;;;;7.07;2.72;;;;;;;5.99;86.22;101883.44;5012473;28;20053;-55
2022/01/25 09:27:26;;;;;;;6.28;2.40;;;;;;;6.01;86.39;101883.47;5012918;28;20057;-56
2022/01/25 09:29:54;;;;;;;7.45;2.55;;;;;;;6.05;86.14;101893.03;5013352;28;20068;-53
2022/01/25 09:32:21;;;;;;;12.98;4.03;;;;;;;6.08;86.26;101890.53;5013869;28;20157;-55
2022/01/25 09:34:47;;;;;;;10.15;3.50;;;;;;;6.08;86.17;101887.97;5015301;28;20498;-55
2022/01/25 09:37:14;;;;;;;4.82;2.40;;;;;;;6.11;85.90;101893.19;5012879;28;20053;-49
2022/01/25 09:39:41;;;;;;;6.68;2.63;;;;;;;6.13;85.87;101901.84;5014378;28;20129;-55
2022/01/25 09:42:10;;;;;;;7.63;3.05;;;;;;;6.17;85.95;101893.38;5011305;28;20057;-53
2022/01/25 09:44:37;;;;;;;6.43;2.80;;;;;;;6.22;85.53;101896.94;5020843;28;20196;-47
2022/01/25 09:47:06;;;;;;;6.65;3.45;;;;;;;6.22;85.85;101901.22;5017148;28;20508;-49
2022/01/25 09:49:33;;;;;;;4.72;2.58;;;;;;;6.22;85.50;101899.50;5019017;28;20454;-50
2022/01/25 09:52:01;;;;;;;4.88;2.72;;;;;;;6.21;85.72;101900.34;5022843;28;20049;-50
2022/01/25 09:54:28;;;;;;;5.18;2.85;;;;;;;6.20;85.56;101901.16;5020703;28;20216;-55
2022/01/25 09:56:57;;;;;;;5.20;2.80;;;;;;;6.20;85.52;101897.72;5023627;28;20057;-54
2022/01/25 09:59:26;;;;;;;7.80;3.60;;;;;;;6.18;85.73;101905.41;5016602;28;20060;-53
2022/01/25 10:01:53;;;;;;;10.15;3.67;;;;;;;6.20;85.79;101893.44;5014900;28;20053;-54
2022/01/25 10:04:32;;;;;;;9.27;3.72;;;;;;;6.20;86.00;101893.44;5017091;28;20060;-54
2022/01/25 10:06:59;;;;;;;7.45;3.55;;;;;;;6.22;86.01;101880.63;5017434;28;20059;-53
2022/01/25 10:09:26;;;;;;;7.30;3.10;;;;;;;6.25;86.47;101889.31;5015312;28;20071;-51
2022/01/25 10:11:52;;;;;;;10.15;4.18;;;;;;;6.29;86.63;101888.59;5017057;28;20137;-53
2022/01/25 10:14:23;;;;;;;6.18;3.05;;;;;;;6.33;86.13;101880.09;5016705;28;20084;-50
2022/01/25 10:16:53;;;;;;;8.43;4.53;;;;;;;6.40;86.16;101885.41;5014513;28;20408;-52
2022/01/25 10:19:24;;;;;;;15.82;4.10;;;;;;;6.45;86.36;101889.00;5017000;28;20050;-50
2022/01/25 10:21:53;;;;;;;17.17;4.05;;;;;;;6.50;86.00;101890.84;5016224;28;20419;-50
2022/01/25 10:24:21;;;;;;;7.47;3.28;;;;;;;6.56;85.88;101887.56;5015809;28;20053;-48
2022/01/25 10:26:50;;;;;;;11.77;3.60;;;;;;;6.63;85.51;101884.31;5014640;28;20450;-50
2022/01/25 10:29:19;;;;;;;8.13;3.17;;;;;;;6.73;85.44;101875.97;5011849;28;20540;-55
2022/01/25 10:31:48;;;;;;;7.95;2.80;;;;;;;6.81;85.23;101866.78;5015702;28;20053;-51
2022/01/25 10:34:17;;;;;;;4.82;2.88;;;;;;;6.87;84.35;101864.34;5012373;28;20053;-50
2022/01/25 10:36:46;;;;;;;7.07;3.13;;;;;;;6.93;83.87;101864.50;5012157;28;20057;-52
2022/01/25 10:39:15;;;;;;;6.18;2.70;;;;;;;6.99;83.66;101862.88;5013232;28;20152;-53
2022/01/25 10:41:42;;;;;;;7.63;3.78;;;;;;;7.03;82.94;101859.56;5015969;28;20053;-53
2022/01/25 10:44:09;;;;;;;7.88;2.70;;;;;;;7.04;82.32;101863.88;5015888;28;20045;-52
2022/01/25 10:46:36;;;;;;;11.13;3.28;;;;;;;7.07;81.89;101866.53;5013118;28;20057;-49
2022/01/25 10:49:05;;;;;;;5.97;3.00;;;;;;;7.08;81.23;101863.09;5013329;28;20389;-51
2022/01/25 10:51:35;;;;;;;4.70;2.65;;;;;;;7.08;80.70;101868.25;5012101;28;20064;-52
2022/01/25 10:54:08;;;;;;;4.63;2.33;;;;;;;7.07;80.47;101861.38;5011580;28;20061;-51
2022/01/25 10:56:41;;;;;;;3.85;2.40;;;;;;;7.05;79.58;101857.88;5013557;28;20135;-50
2022/01/25 10:59:11;;;;;;;5.95;2.88;;;;;;;7.02;79.59;101860.38;5015909;28;20054;-57
2022/01/25 11:01:39;;;;;;;6.30;2.10;;;;;;;6.95;79.13;101849.94;5011336;28;20053;-56
2022/01/25 11:04:08;;;;;;;8.68;3.75;;;;;;;6.91;78.97;101850.69;5013976;28;20528;-52
2022/01/25 11:06:34;;;;;;;5.18;3.00;;;;;;;6.87;79.69;101854.03;5016707;28;20065;-55
2022/01/25 11:09:04;;;;;;;6.18;2.78;;;;;;;6.87;79.55;101842.84;5011844;28;20100;-55
2022/01/25 11:11:37;;;;;;;11.27;3.65;;;;;;;6.86;79.89;101847.13;5012331;28;20191;-55
2022/01/25 11:16:51;;;;;;;6.40;2.50;;;;;;;6.93;79.93;101851.59;5016144;28;20052;-48
2022/01/25 11:19:18;;;;;;;7.32;3.00;;;;;;;7.02;79.83;101857.81;5015793;28;20061;-49
2022/01/25 11:21:46;;;;;;;11.30;2.83;;;;;;;7.12;79.79;101849.44;5014831;28;20061;-51
2022/01/25 11:24:14;;;;;;;5.25;2.33;;;;;;;7.24;79.75;101852.31;5015880;28;20526;-49
2022/01/25 11:26:42;;;;;;;8.68;2.47;;;;;;;7.35;79.59;101858.63;5014612;28;20064;-49
2022/01/25 11:29:11;;;;;;;4.68;2.20;;;;;;;7.42;79.05;101847.59;5014117;28;20148;-51
2022/01/25 11:31:40;;;;;;;7.07;2.50;;;;;;;7.45;78.49;101845.06;5011594;28;20046;-49
2022/01/25 11:34:11;;;;;;;6.72;3.00;;;;;;;7.49;78.51;101846.00;5014853;28;20046;-48
2022/01/25 11:36:44;;;;;;;7.78;2.33;;;;;;;7.44;77.90;101842.47;5011917;28;20064;-57
2022/01/25 11:39:11;;;;;;;6.38;2.50;;;;;;;7.40;78.77;101846.69;5011679;28;20458;-56
2022/01/25 11:41:42;;;;;;;4.57;1.80;;;;;;;7.36;77.99;101844.00;5012848;28;20072;-57
2022/01/25 11:44:14;;;;;;;4.90;2.35;;;;;;;7.35;77.92;101852.59;5014442;28;20053;-53
2022/01/25 11:46:46;;;;;;;4.32;1.83;;;;;;;7.26;78.16;101842.91;5013218;28;20045;-48
2022/01/25 11:49:16;;;;;;;5.20;2.45;;;;;;;7.21;77.74;101839.34;5015411;28;21130;-47
2022/01/25 11:51:43;;;;;;;3.92;2.25;;;;;;;7.14;78.51;101828.03;5015681;28;20049;-51
2022/01/25 11:54:10;;;;;;;4.25;2.08;;;;;;;7.09;78.84;101834.78;5016900;28;20050;-50
2022/01/25 11:56:38;;;;;;;6.70;2.60;;;;;;;7.08;79.19;101827.00;5011364;28;20064;-58
2022/01/25 11:59:06;;;;;;;5.85;2.00;;;;;;;7.08;78.68;101827.00;5011742;28;20482;-55
2022/01/25 12:01:35;;;;;;;5.93;2.25;;;;;;;7.07;78.37;101826.13;5009812;28;20111;-55
2022/01/25 12:04:06;;;;;;;7.82;2.05;;;;;;;7.09;78.72;101828.75;5012522;28;20049;-56
2022/01/25 12:06:38;;;;;;;4.70;2.47;;;;;;;7.10;78.55;101825.34;5011727;28;20137;-53
2022/01/25 12:09:13;;;;;;;10.73;4.53;;;;;;;7.07;78.33;101822.69;5013977;28;20045;-54
2022/01/25 12:11:44;;;;;;;5.45;2.33;;;;;;;7.06;78.64;101820.94;5016139;28;20045;-54
2022/01/25 12:14:15;;;;;;;14.13;2.90;;;;;;;7.08;78.70;101829.59;5009241;28;20173;-52
2022/01/25 12:16:44;;;;;;;9.45;2.70;;;;;;;7.12;78.23;101823.66;5012636;28;20046;-48
2022/01/25 12:19:13;;;;;;;8.07;2.53;;;;;;;7.11;77.87;101830.53;5014834;28;20406;-49
2022/01/25 12:22:00;;;;;;;6.35;2.45;;;;;;;7.11;77.80;101825.38;5011515;28;20081;-54
2022/01/25 12:24:32;;;;;;;5.78;2.63;;;;;;;7.15;78.41;101828.88;5012332;28;20608;-51
2022/01/25 12:27:06;;;;;;;5.28;2.90;;;;;;;7.13;78.12;101820.25;5010599;28;20045;-48
2022/01/25 12:29:35;;;;;;;4.78;2.15;;;;;;;7.12;78.26;101833.97;5016628;28;20499;-51
2022/01/25 12:32:26;;;;;;;7.28;2.17;;;;;;;7.08;78.08;101837.31;5016372;28;20100;-50
2022/01/25 12:35:06;;;;;;;4.05;2.55;;;;;;;7.02;78.08;101852.66;5017252;28;20423;-50
2022/01/25 12:37:57;;;;;;;6.28;2.55;;;;;;;6.90;78.92;101854.09;5012672;28;20406;-57
2022/01/25 12:40:50;;;;;;;8.00;2.17;;;;;;;6.80;79.08;101840.97;5016973;28;20176;-54
2022/01/25 12:43:20;;;;;;;5.10;2.35;;;;;;;6.75;78.90;101842.53;5010100;28;20057;-55
2022/01/25 12:45:50;;;;;;;6.55;2.30;;;;;;;6.70;79.62;101841.53;5018554;28;20053;-56
2022/01/25 12:48:27;;;;;;;5.15;2.40;;;;;;;6.67;79.71;101834.59;5016356;28;20050;-57
2022/01/25 12:51:03;;;;;;;6.20;2.15;;;;;;;6.65;79.91;101834.56;5019290;28;20112;-57
2022/01/25 12:53:32;;;;;;;7.60;3.20;;;;;;;6.67;80.25;101838.88;5013326;28;20060;-48
2022/01/25 12:56:02;;;;;;;10.32;3.65;;;;;;;6.64;80.30;101837.09;5013227;28;20564;-52